sensor_id;sensor_type;location;lat;lon;timestamp;pressure;altitude;pressure_sealevel;temperature;humidity
21203;BME280;10759;51.982;9.232;2022-08-25T00:01:22;100660.63;;;18.72;72.52
21203;BME280;10759;51.982;9.232;2022-08-25T00:03:53;100677.63;;;18.76;72.29
21203;BME280;10759;51.982;9.232;2022-08-25T00:06:22;100700.00;;;18.92;72.08
21203;BME280;10759;51.982;9.232;2022-08-25T00:08:50;100693.81;;;18.90;72.48
21203;BME280;10759;51.982;9.232;2022-08-25T00:11:22;100691.00;;;18.64;73.25
21203;BME280;10759;51.982;9.232;2022-08-25T00:13:53;100699.34;;;18.76;73.18
21203;BME280;10759;51.982;9.232;2022-08-25T00:16:22;100400.00;;;17.00;73.45
21203;BME280;10759;51.982;9.232;2022-08-25T00:18:55;100698.66;;;18.58;74.06
21203;BME280;10759;51.982;9.232;2022-08-25T00:21:24;100703.22;;;18.57;74.50
21203;BME280;10759;51.982;9.232;2022-08-25T00:23:53;100699.84;;;18.54;74.69
21203;BME280;10759;51.982;9.232;2022-08-25T00:26:23;100675.94;;;18.46;74.87
21203;BME280;10759;51.982;9.232;2022-08-25T00:28:51;100641.59;;;18.32;74.76
21203;BME280;10759;51.982;9.232;2022-08-25T00:31:28;100702.28;;;18.58;74.44
21203;BME280;10759;51.982;9.232;2022-08-25T00:34:06;100701.28;;;18.59;74.45
21203;BME280;10759;51.982;9.232;2022-08-25T00:36:36;100707.75;;;18.71;73.82
21203;BME280;10759;51.982;9.232;2022-08-25T00:39:06;100701.84;;;18.64;73.91
21203;BME280;10759;51.982;9.232;2022-08-25T00:41:36;100704.00;;;18.59;74.34
21203;BME280;10759;51.982;9.232;2022-08-25T00:44:07;100664.34;;;18.30;74.37
21203;BME280;10759;51.982;9.232;2022-08-25T00:46:40;100674.53;;;18.26;74.46
21203;BME280;10759;51.982;9.232;2022-08-25T00:49:12;100610.97;;;17.89;74.68
21203;BME280;10759;51.982;9.232;2022-08-25T00:51:53;100706.69;;;18.32;75.07
21203;BME280;10759;51.982;9.232;2022-08-25T00:54:24;100708.63;;;18.30;75.58
21203;BME280;10759;51.982;9.232;2022-08-25T00:56:55;100709.69;;;18.28;75.77
21203;BME280;10759;51.982;9.232;2022-08-25T00:59:25;100638.56;;;17.81;76.00
21203;BME280;10759;51.982;9.232;2022-08-25T01:01:55;100593.75;;;17.47;76.93
21203;BME280;10759;51.982;9.232;2022-08-25T01:04:25;100716.47;;;18.20;76.49
21203;BME280;10759;51.982;9.232;2022-08-25T01:06:53;100688.88;;;18.14;76.09
21203;BME280;10759;51.982;9.232;2022-08-25T01:09:23;100709.31;;;18.19;76.43
21203;BME280;10759;51.982;9.232;2022-08-25T01:11:51;100709.91;;;18.10;76.45
21203;BME280;10759;51.982;9.232;2022-08-25T01:14:23;100656.94;;;17.76;77.04
21203;BME280;10759;51.982;9.232;2022-08-25T01:16:52;100710.41;;;18.02;77.29
21203;BME280;10759;51.982;9.232;2022-08-25T01:19:21;100648.72;;;17.63;77.29
21203;BME280;10759;51.982;9.232;2022-08-25T01:21:51;100705.47;;;17.95;77.56
21203;BME280;10759;51.982;9.232;2022-08-25T01:24:25;100705.38;;;17.82;78.34
21203;BME280;10759;51.982;9.232;2022-08-25T01:26:57;100587.16;;;17.08;78.77
21203;BME280;10759;51.982;9.232;2022-08-25T01:29:26;100711.53;;;17.70;78.86
21203;BME280;10759;51.982;9.232;2022-08-25T01:31:55;100708.06;;;17.68;79.78
21203;BME280;10759;51.982;9.232;2022-08-25T01:34:25;100706.88;;;17.72;80.17
21203;BME280;10759;51.982;9.232;2022-08-25T01:36:55;100624.53;;;17.31;79.67
21203;BME280;10759;51.982;9.232;2022-08-25T01:39:24;100697.00;;;17.71;79.62
21203;BME280;10759;51.982;9.232;2022-08-25T01:42:03;100699.81;;;17.69;79.10
21203;BME280;10759;51.982;9.232;2022-08-25T01:44:37;100698.97;;;17.83;78.61
21203;BME280;10759;51.982;9.232;2022-08-25T01:47:07;100697.38;;;17.79;78.79
21203;BME280;10759;51.982;9.232;2022-08-25T01:49:35;100700.84;;;17.83;78.90
21203;BME280;10759;51.982;9.232;2022-08-25T01:52:10;100697.09;;;17.69;78.75
21203;BME280;10759;51.982;9.232;2022-08-25T01:54:38;100694.22;;;17.58;79.79
21203;BME280;10759;51.982;9.232;2022-08-25T01:57:06;100700.88;;;17.52;79.80
21203;BME280;10759;51.982;9.232;2022-08-25T01:59:35;100692.84;;;17.51;79.72
21203;BME280;10759;51.982;9.232;2022-08-25T02:02:03;100675.13;;;17.45;79.13
21203;BME280;10759;51.982;9.232;2022-08-25T02:04:33;100679.50;;;17.48;78.49
21203;BME280;10759;51.982;9.232;2022-08-25T02:07:02;100573.69;;;16.92;78.78
21203;BME280;10759;51.982;9.232;2022-08-25T02:09:33;100684.16;;;17.60;78.68
21203;BME280;10759;51.982;9.232;2022-08-25T02:12:02;100665.81;;;17.35;79.33
21203;BME280;10759;51.982;9.232;2022-08-25T02:14:30;100672.22;;;17.48;78.97
21203;BME280;10759;51.982;9.232;2022-08-25T02:16:58;100690.72;;;17.56;79.12
21203;BME280;10759;51.982;9.232;2022-08-25T02:19:26;100696.50;;;17.50;79.37
21203;BME280;10759;51.982;9.232;2022-08-25T02:21:57;100684.22;;;17.44;79.62
21203;BME280;10759;51.982;9.232;2022-08-25T02:24:25;100690.03;;;17.38;79.38
21203;BME280;10759;51.982;9.232;2022-08-25T02:26:55;100692.03;;;17.34;80.41
21203;BME280;10759;51.982;9.232;2022-08-25T02:29:23;100690.66;;;17.27;80.82
21203;BME280;10759;51.982;9.232;2022-08-25T02:31:51;100689.47;;;17.17;80.93
21203;BME280;10759;51.982;9.232;2022-08-25T02:34:19;100678.84;;;17.14;80.96
21203;BME280;10759;51.982;9.232;2022-08-25T02:36:49;100518.13;;;16.26;80.70
21203;BME280;10759;51.982;9.232;2022-08-25T02:39:17;100683.88;;;17.20;80.95
21203;BME280;10759;51.982;9.232;2022-08-25T02:41:45;100686.38;;;17.09;81.68
21203;BME280;10759;51.982;9.232;2022-08-25T02:44:14;100689.03;;;16.94;82.29
21203;BME280;10759;51.982;9.232;2022-08-25T02:46:43;100665.13;;;16.71;83.08
21203;BME280;10759;51.982;9.232;2022-08-25T02:49:11;100685.81;;;16.88;82.86
21203;BME280;10759;51.982;9.232;2022-08-25T02:51:39;100687.84;;;16.84;83.20
21203;BME280;10759;51.982;9.232;2022-08-25T02:54:08;100679.91;;;16.81;83.55
21203;BME280;10759;51.982;9.232;2022-08-25T02:56:36;100681.63;;;16.82;83.68
21203;BME280;10759;51.982;9.232;2022-08-25T02:59:05;100654.34;;;16.55;84.32
21203;BME280;10759;51.982;9.232;2022-08-25T03:01:35;100691.50;;;16.67;84.95
21203;BME280;10759;51.982;9.232;2022-08-25T03:04:03;100658.03;;;16.54;84.63
21203;BME280;10759;51.982;9.232;2022-08-25T03:06:32;100680.50;;;16.86;83.86
21203;BME280;10759;51.982;9.232;2022-08-25T03:09:00;100683.81;;;16.91;83.57
21203;BME280;10759;51.982;9.232;2022-08-25T03:11:29;100680.31;;;16.89;83.34
21203;BME280;10759;51.982;9.232;2022-08-25T03:13:57;100682.31;;;16.86;83.75
21203;BME280;10759;51.982;9.232;2022-08-25T03:16:26;100675.78;;;16.74;84.73
21203;BME280;10759;51.982;9.232;2022-08-25T03:18:56;100683.28;;;16.85;84.02
21203;BME280;10759;51.982;9.232;2022-08-25T03:21:26;100683.38;;;16.83;84.26
21203;BME280;10759;51.982;9.232;2022-08-25T03:23:56;100689.94;;;16.79;84.30
21203;BME280;10759;51.982;9.232;2022-08-25T03:26:25;100501.88;;;15.64;84.13
21203;BME280;10759;51.982;9.232;2022-08-25T03:29:11;100692.56;;;16.49;83.87
21203;BME280;10759;51.982;9.232;2022-08-25T03:31:39;100694.06;;;16.55;84.96
21203;BME280;10759;51.982;9.232;2022-08-25T03:34:11;100695.97;;;16.52;85.21
21203;BME280;10759;51.982;9.232;2022-08-25T03:36:39;100697.28;;;16.45;85.83
21203;BME280;10759;51.982;9.232;2022-08-25T03:39:07;100699.19;;;16.43;86.21
21203;BME280;10759;51.982;9.232;2022-08-25T03:41:35;100643.38;;;16.10;86.33
21203;BME280;10759;51.982;9.232;2022-08-25T03:44:05;100692.56;;;16.33;86.05
21203;BME280;10759;51.982;9.232;2022-08-25T03:46:38;100610.44;;;15.88;85.83
21203;BME280;10759;51.982;9.232;2022-08-25T03:49:08;100686.03;;;16.37;86.13
21203;BME280;10759;51.982;9.232;2022-08-25T03:51:43;100691.72;;;16.33;86.99
21203;BME280;10759;51.982;9.232;2022-08-25T03:54:13;100680.44;;;16.40;86.51
21203;BME280;10759;51.982;9.232;2022-08-25T03:56:42;100683.84;;;16.44;86.42
21203;BME280;10759;51.982;9.232;2022-08-25T03:59:11;100677.94;;;16.37;86.39
21203;BME280;10759;51.982;9.232;2022-08-25T04:01:41;100683.50;;;16.34;86.64
21203;BME280;10759;51.982;9.232;2022-08-25T04:04:09;100683.69;;;16.47;85.75
21203;BME280;10759;51.982;9.232;2022-08-25T04:06:39;100679.38;;;16.59;84.75
21203;BME280;10759;51.982;9.232;2022-08-25T04:09:09;100675.13;;;16.55;84.92
21203;BME280;10759;51.982;9.232;2022-08-25T04:11:37;100668.66;;;16.41;85.38
21203;BME280;10759;51.982;9.232;2022-08-25T04:14:08;100649.50;;;16.30;85.70
21203;BME280;10759;51.982;9.232;2022-08-25T04:16:43;100637.13;;;16.10;85.92
21203;BME280;10759;51.982;9.232;2022-08-25T04:19:11;100676.44;;;16.31;86.58
21203;BME280;10759;51.982;9.232;2022-08-25T04:21:41;100676.53;;;16.30;87.10
21203;BME280;10759;51.982;9.232;2022-08-25T04:24:10;100681.06;;;16.29;87.12
21203;BME280;10759;51.982;9.232;2022-08-25T04:26:41;100642.59;;;16.08;87.52
21203;BME280;10759;51.982;9.232;2022-08-25T04:29:11;100663.09;;;16.13;88.45
21203;BME280;10759;51.982;9.232;2022-08-25T04:31:41;100661.94;;;16.17;88.17
21203;BME280;10759;51.982;9.232;2022-08-25T04:34:14;100665.25;;;16.22;88.13
21203;BME280;10759;51.982;9.232;2022-08-25T04:36:59;100645.31;;;16.24;87.33
21203;BME280;10759;51.982;9.232;2022-08-25T04:39:27;100670.88;;;16.35;87.36
21203;BME280;10759;51.982;9.232;2022-08-25T04:41:56;100672.06;;;16.29;88.19
21203;BME280;10759;51.982;9.232;2022-08-25T04:44:26;100666.94;;;16.40;87.34
21203;BME280;10759;51.982;9.232;2022-08-25T04:46:54;100671.81;;;16.49;87.02
21203;BME280;10759;51.982;9.232;2022-08-25T04:49:22;100672.41;;;16.55;87.17
21203;BME280;10759;51.982;9.232;2022-08-25T04:51:50;100670.03;;;16.64;87.04
21203;BME280;10759;51.982;9.232;2022-08-25T04:54:19;100670.53;;;16.71;86.75
21203;BME280;10759;51.982;9.232;2022-08-25T04:56:50;100663.56;;;16.83;85.58
21203;BME280;10759;51.982;9.232;2022-08-25T04:59:22;100667.88;;;17.01;85.13
21203;BME280;10759;51.982;9.232;2022-08-25T05:01:54;100669.06;;;17.11;84.85
21203;BME280;10759;51.982;9.232;2022-08-25T05:04:25;100677.59;;;17.20;84.92
21203;BME280;10759;51.982;9.232;2022-08-25T05:06:54;100667.66;;;17.34;84.82
21203;BME280;10759;51.982;9.232;2022-08-25T05:09:24;100636.34;;;17.30;84.40
21203;BME280;10759;51.982;9.232;2022-08-25T05:11:53;100667.31;;;17.55;83.92
21203;BME280;10759;51.982;9.232;2022-08-25T05:14:22;100663.91;;;17.66;83.24
21203;BME280;10759;51.982;9.232;2022-08-25T05:16:52;100666.25;;;17.86;81.77
21203;BME280;10759;51.982;9.232;2022-08-25T05:19:20;100663.41;;;17.30;83.38
21203;BME280;10759;51.982;9.232;2022-08-25T05:21:49;100652.50;;;17.02;84.61
21203;BME280;10759;51.982;9.232;2022-08-25T05:24:18;100662.16;;;16.91;88.08
21203;BME280;10759;51.982;9.232;2022-08-25T05:26:49;100657.28;;;16.82;88.38
21203;BME280;10759;51.982;9.232;2022-08-25T05:29:17;100660.22;;;16.93;88.09
21203;BME280;10759;51.982;9.232;2022-08-25T05:31:45;100621.09;;;16.53;87.70
21203;BME280;10759;51.982;9.232;2022-08-25T05:34:16;100645.47;;;16.83;86.85
21203;BME280;10759;51.982;9.232;2022-08-25T05:36:45;100656.94;;;17.33;85.50
21203;BME280;10759;51.982;9.232;2022-08-25T05:39:13;100658.78;;;17.75;84.42
21203;BME280;10759;51.982;9.232;2022-08-25T05:41:41;100660.91;;;17.70;82.87
21203;BME280;10759;51.982;9.232;2022-08-25T05:44:11;100640.78;;;17.60;84.14
21203;BME280;10759;51.982;9.232;2022-08-25T05:46:43;100656.34;;;17.56;84.10
21203;BME280;10759;51.982;9.232;2022-08-25T05:49:11;100636.63;;;17.69;83.49
21203;BME280;10759;51.982;9.232;2022-08-25T05:51:39;100650.56;;;18.06;82.51
21203;BME280;10759;51.982;9.232;2022-08-25T05:54:07;100651.38;;;18.20;82.77
21203;BME280;10759;51.982;9.232;2022-08-25T05:56:35;100598.47;;;18.00;80.97
21203;BME280;10759;51.982;9.232;2022-08-25T05:59:03;100652.16;;;18.22;80.74
21203;BME280;10759;51.982;9.232;2022-08-25T06:01:36;100631.38;;;18.36;81.69
21203;BME280;10759;51.982;9.232;2022-08-25T06:04:22;100658.25;;;18.53;80.67
21203;BME280;10759;51.982;9.232;2022-08-25T06:06:50;100625.69;;;18.26;80.93
21203;BME280;10759;51.982;9.232;2022-08-25T06:09:20;100653.25;;;18.47;80.50
21203;BME280;10759;51.982;9.232;2022-08-25T06:11:49;100656.44;;;18.54;81.82
21203;BME280;10759;51.982;9.232;2022-08-25T06:14:21;100628.75;;;18.49;82.61
21203;BME280;10759;51.982;9.232;2022-08-25T06:16:51;100650.53;;;18.74;81.43
21203;BME280;10759;51.982;9.232;2022-08-25T06:19:19;100650.25;;;18.79;80.79
21203;BME280;10759;51.982;9.232;2022-08-25T06:21:52;100604.75;;;18.55;80.25
21203;BME280;10759;51.982;9.232;2022-08-25T06:24:21;100654.22;;;19.00;80.27
21203;BME280;10759;51.982;9.232;2022-08-25T06:26:49;100636.84;;;19.16;78.87
21203;BME280;10759;51.982;9.232;2022-08-25T06:29:18;100651.53;;;19.26;79.42
21203;BME280;10759;51.982;9.232;2022-08-25T06:31:46;100615.75;;;19.06;79.14
21203;BME280;10759;51.982;9.232;2022-08-25T06:34:17;100650.31;;;19.17;79.85
21203;BME280;10759;51.982;9.232;2022-08-25T06:36:49;100639.56;;;19.41;78.21
21203;BME280;10759;51.982;9.232;2022-08-25T06:39:17;100642.09;;;19.57;77.86
21203;BME280;10759;51.982;9.232;2022-08-25T06:41:49;100637.53;;;19.45;78.42
21203;BME280;10759;51.982;9.232;2022-08-25T06:44:18;100631.88;;;19.35;79.58
21203;BME280;10759;51.982;9.232;2022-08-25T06:46:46;100587.19;;;19.26;78.92
21203;BME280;10759;51.982;9.232;2022-08-25T06:49:14;100627.28;;;19.87;78.48
21203;BME280;10759;51.982;9.232;2022-08-25T06:51:44;100621.00;;;19.86;77.39
21203;BME280;10759;51.982;9.232;2022-08-25T06:54:12;100620.34;;;20.20;76.86
21203;BME280;10759;51.982;9.232;2022-08-25T06:56:41;100624.91;;;20.56;75.49
21203;BME280;10759;51.982;9.232;2022-08-25T06:59:09;100606.28;;;20.50;74.50
21203;BME280;10759;51.982;9.232;2022-08-25T07:01:38;100616.78;;;20.67;74.19
21203;BME280;10759;51.982;9.232;2022-08-25T07:04:06;100612.53;;;20.87;73.89
21203;BME280;10759;51.982;9.232;2022-08-25T07:06:39;100611.75;;;21.20;72.88
21203;BME280;10759;51.982;9.232;2022-08-25T07:09:10;100614.53;;;21.43;71.70
21203;BME280;10759;51.982;9.232;2022-08-25T07:11:40;100612.44;;;21.58;72.91
21203;BME280;10759;51.982;9.232;2022-08-25T07:14:09;100615.16;;;21.69;73.13
21203;BME280;10759;51.982;9.232;2022-08-25T07:16:37;100617.41;;;21.86;72.49
21203;BME280;10759;51.982;9.232;2022-08-25T07:19:07;100586.38;;;21.87;72.17
21203;BME280;10759;51.982;9.232;2022-08-25T07:21:41;100426.34;;;21.22;72.95
21203;BME280;10759;51.982;9.232;2022-08-25T07:24:13;100620.38;;;22.49;73.05
21203;BME280;10759;51.982;9.232;2022-08-25T07:26:42;100474.56;;;21.87;70.87
21203;BME280;10759;51.982;9.232;2022-08-25T07:29:17;100615.88;;;22.92;72.62
21203;BME280;10759;51.982;9.232;2022-08-25T07:31:58;100604.78;;;22.93;70.79
21203;BME280;10759;51.982;9.232;2022-08-25T07:34:26;100615.56;;;23.27;73.20
21203;BME280;10759;51.982;9.232;2022-08-25T07:37:19;100628.94;;;23.51;70.23
21203;BME280;10759;51.982;9.232;2022-08-25T07:40:10;100602.47;;;23.52;71.51
21203;BME280;10759;51.982;9.232;2022-08-25T07:42:39;100623.91;;;23.77;70.20
21203;BME280;10759;51.982;9.232;2022-08-25T07:45:09;100622.19;;;23.76;68.77
21203;BME280;10759;51.982;9.232;2022-08-25T07:47:38;100553.97;;;23.54;70.06
21203;BME280;10759;51.982;9.232;2022-08-25T07:50:09;100607.88;;;24.04;69.67
21203;BME280;10759;51.982;9.232;2022-08-25T07:52:38;100556.00;;;23.92;69.34
21203;BME280;10759;51.982;9.232;2022-08-25T07:55:09;100609.38;;;24.17;68.96
21203;BME280;10759;51.982;9.232;2022-08-25T07:57:43;100616.03;;;24.34;68.95
21203;BME280;10759;51.982;9.232;2022-08-25T08:00:20;100622.13;;;24.57;68.65
21203;BME280;10759;51.982;9.232;2022-08-25T08:02:50;100609.16;;;24.59;67.53
21203;BME280;10759;51.982;9.232;2022-08-25T08:05:19;100618.69;;;24.75;68.67
21203;BME280;10759;51.982;9.232;2022-08-25T08:07:49;100617.94;;;24.92;69.23
21203;BME280;10759;51.982;9.232;2022-08-25T08:10:19;100620.81;;;25.20;67.75
21203;BME280;10759;51.982;9.232;2022-08-25T08:13:09;100584.47;;;25.18;68.88
21203;BME280;10759;51.982;9.232;2022-08-25T08:15:44;100630.47;;;25.43;67.81
21203;BME280;10759;51.982;9.232;2022-08-25T08:18:12;100583.13;;;25.32;68.70
21203;BME280;10759;51.982;9.232;2022-08-25T08:20:43;100623.25;;;25.80;69.56
21203;BME280;10759;51.982;9.232;2022-08-25T08:23:11;100621.28;;;26.09;68.70
21203;BME280;10759;51.982;9.232;2022-08-25T08:25:40;100587.00;;;25.86;67.09
21203;BME280;10759;51.982;9.232;2022-08-25T08:28:09;100620.50;;;25.89;68.32
21203;BME280;10759;51.982;9.232;2022-08-25T08:30:37;100607.91;;;25.97;67.75
21203;BME280;10759;51.982;9.232;2022-08-25T08:33:17;100615.06;;;26.07;68.05
21203;BME280;10759;51.982;9.232;2022-08-25T08:35:45;100611.69;;;26.13;67.96
21203;BME280;10759;51.982;9.232;2022-08-25T08:38:13;100613.69;;;26.21;68.00
21203;BME280;10759;51.982;9.232;2022-08-25T08:41:02;100608.69;;;26.34;67.24
21203;BME280;10759;51.982;9.232;2022-08-25T08:43:58;100582.78;;;26.19;67.76
21203;BME280;10759;51.982;9.232;2022-08-25T08:46:47;100602.34;;;26.52;66.16
21203;BME280;10759;51.982;9.232;2022-08-25T08:49:22;100596.47;;;26.65;64.86
21203;BME280;10759;51.982;9.232;2022-08-25T08:51:58;100598.22;;;26.66;64.49
21203;BME280;10759;51.982;9.232;2022-08-25T08:54:31;100570.81;;;26.56;64.71
21203;BME280;10759;51.982;9.232;2022-08-25T08:57:08;100577.16;;;26.74;64.15
21203;BME280;10759;51.982;9.232;2022-08-25T08:59:44;100592.53;;;27.03;64.11
21203;BME280;10759;51.982;9.232;2022-08-25T09:02:20;100571.91;;;27.07;63.87
21203;BME280;10759;51.982;9.232;2022-08-25T09:05:11;100584.81;;;27.25;63.96
21203;BME280;10759;51.982;9.232;2022-08-25T09:07:46;100559.19;;;27.24;62.48
21203;BME280;10759;51.982;9.232;2022-08-25T09:10:22;100589.28;;;27.52;61.17
21203;BME280;10759;51.982;9.232;2022-08-25T09:12:58;100580.97;;;27.44;62.48
21203;BME280;10759;51.982;9.232;2022-08-25T09:15:43;100592.75;;;27.28;63.16
21203;BME280;10759;51.982;9.232;2022-08-25T09:18:33;100578.03;;;27.37;61.06
21203;BME280;10759;51.982;9.232;2022-08-25T09:21:26;100540.09;;;27.23;59.80
21203;BME280;10759;51.982;9.232;2022-08-25T09:24:10;100585.88;;;27.32;61.20
21203;BME280;10759;51.982;9.232;2022-08-25T09:26:46;100546.69;;;27.12;60.37
21203;BME280;10759;51.982;9.232;2022-08-25T09:29:21;100589.66;;;27.31;61.58
21203;BME280;10759;51.982;9.232;2022-08-25T09:31:56;100585.22;;;27.38;60.13
21203;BME280;10759;51.982;9.232;2022-08-25T09:34:29;100587.16;;;27.46;59.78
21203;BME280;10759;51.982;9.232;2022-08-25T09:36:59;100553.16;;;27.21;60.46
21203;BME280;10759;51.982;9.232;2022-08-25T09:39:28;100577.88;;;27.47;60.44
21203;BME280;10759;51.982;9.232;2022-08-25T09:41:58;100506.22;;;27.22;59.96
21203;BME280;10759;51.982;9.232;2022-08-25T09:44:30;100564.19;;;27.55;59.30
21203;BME280;10759;51.982;9.232;2022-08-25T09:47:02;100544.94;;;27.29;57.87
21203;BME280;10759;51.982;9.232;2022-08-25T09:49:34;100565.72;;;27.49;59.46
21203;BME280;10759;51.982;9.232;2022-08-25T09:52:21;100562.25;;;27.47;59.67
21203;BME280;10759;51.982;9.232;2022-08-25T09:54:52;100560.59;;;27.62;58.57
21203;BME280;10759;51.982;9.232;2022-08-25T09:57:32;100558.50;;;27.56;57.98
21203;BME280;10759;51.982;9.232;2022-08-25T10:00:15;100553.63;;;27.42;57.49
21203;BME280;10759;51.982;9.232;2022-08-25T10:02:59;100548.53;;;27.29;59.52
21203;BME280;10759;51.982;9.232;2022-08-25T10:05:33;100550.56;;;27.53;59.73
21203;BME280;10759;51.982;9.232;2022-08-25T10:08:09;100542.03;;;27.30;59.20
21203;BME280;10759;51.982;9.232;2022-08-25T10:10:44;100528.94;;;27.58;56.79
21203;BME280;10759;51.982;9.232;2022-08-25T10:13:16;100513.59;;;27.22;57.34
21203;BME280;10759;51.982;9.232;2022-08-25T10:16:03;100507.88;;;27.41;56.19
21203;BME280;10759;51.982;9.232;2022-08-25T10:19:09;100508.59;;;27.51;56.75
21203;BME280;10759;51.982;9.232;2022-08-25T10:21:39;100513.44;;;27.49;56.13
21203;BME280;10759;51.982;9.232;2022-08-25T10:24:10;100510.84;;;27.56;57.02
21203;BME280;10759;51.982;9.232;2022-08-25T10:26:43;100510.22;;;27.70;57.03
21203;BME280;10759;51.982;9.232;2022-08-25T10:29:27;100498.72;;;27.67;57.06
21203;BME280;10759;51.982;9.232;2022-08-25T10:32:03;100505.00;;;27.51;57.79
21203;BME280;10759;51.982;9.232;2022-08-25T10:34:44;100497.06;;;27.48;59.22
21203;BME280;10759;51.982;9.232;2022-08-25T10:37:20;100489.25;;;27.69;57.37
21203;BME280;10759;51.982;9.232;2022-08-25T10:39:57;100477.09;;;27.88;56.95
21203;BME280;10759;51.982;9.232;2022-08-25T10:42:33;100478.75;;;27.73;56.36
21203;BME280;10759;51.982;9.232;2022-08-25T10:45:15;100457.88;;;27.96;55.94
21203;BME280;10759;51.982;9.232;2022-08-25T10:48:21;100466.84;;;28.07;55.60
21203;BME280;10759;51.982;9.232;2022-08-25T10:50:56;100462.88;;;28.17;56.59
21203;BME280;10759;51.982;9.232;2022-08-25T10:53:28;100452.78;;;27.75;57.27
21203;BME280;10759;51.982;9.232;2022-08-25T10:56:05;100339.84;;;27.34;55.64
21203;BME280;10759;51.982;9.232;2022-08-25T11:01:39;100394.28;;;27.73;54.60
21203;BME280;10759;51.982;9.232;2022-08-25T11:04:15;100344.69;;;27.32;54.85
21203;BME280;10759;51.982;9.232;2022-08-25T11:06:54;100438.63;;;28.21;54.89
21203;BME280;10759;51.982;9.232;2022-08-25T11:09:28;100429.81;;;28.25;55.09
21203;BME280;10759;51.982;9.232;2022-08-25T11:12:06;100364.50;;;27.52;55.62
21203;BME280;10759;51.982;9.232;2022-08-25T11:14:38;100410.91;;;28.14;55.58
21203;BME280;10759;51.982;9.232;2022-08-25T11:17:11;100415.88;;;28.11;54.17
21203;BME280;10759;51.982;9.232;2022-08-25T11:19:46;100369.56;;;27.98;54.70
21203;BME280;10759;51.982;9.232;2022-08-25T11:22:20;100428.47;;;28.54;53.20
21203;BME280;10759;51.982;9.232;2022-08-25T11:25:00;100421.06;;;28.46;50.31
21203;BME280;10759;51.982;9.232;2022-08-25T11:27:36;100432.94;;;28.63;50.77
21203;BME280;10759;51.982;9.232;2022-08-25T11:30:08;100422.25;;;28.52;50.30
21203;BME280;10759;51.982;9.232;2022-08-25T11:32:38;100386.63;;;28.51;50.62
21203;BME280;10759;51.982;9.232;2022-08-25T11:35:11;100411.25;;;28.60;49.10
21203;BME280;10759;51.982;9.232;2022-08-25T11:37:45;100406.25;;;28.31;48.72
21203;BME280;10759;51.982;9.232;2022-08-25T11:40:32;100407.63;;;28.52;49.53
21203;BME280;10759;51.982;9.232;2022-08-25T11:43:15;100396.59;;;28.68;50.04
21203;BME280;10759;51.982;9.232;2022-08-25T11:45:59;100396.84;;;28.98;49.16
21203;BME280;10759;51.982;9.232;2022-08-25T11:48:44;100366.06;;;28.69;46.51
21203;BME280;10759;51.982;9.232;2022-08-25T11:51:30;100402.25;;;28.66;49.16
21203;BME280;10759;51.982;9.232;2022-08-25T11:54:20;100401.25;;;28.67;47.97
21203;BME280;10759;51.982;9.232;2022-08-25T11:56:56;100381.06;;;28.75;47.18
21203;BME280;10759;51.982;9.232;2022-08-25T12:02:34;100390.34;;;28.74;46.67
21203;BME280;10759;51.982;9.232;2022-08-25T12:05:05;100396.91;;;28.73;47.56
21203;BME280;10759;51.982;9.232;2022-08-25T12:07:59;100383.13;;;28.73;47.64
21203;BME280;10759;51.982;9.232;2022-08-25T12:11:03;100373.03;;;28.97;47.79
21203;BME280;10759;51.982;9.232;2022-08-25T12:13:45;100367.53;;;28.97;47.41
21203;BME280;10759;51.982;9.232;2022-08-25T12:16:37;100363.84;;;29.21;47.22
21203;BME280;10759;51.982;9.232;2022-08-25T12:19:27;100361.56;;;29.32;45.94
21203;BME280;10759;51.982;9.232;2022-08-25T12:25:08;100345.19;;;28.83;45.48
21203;BME280;10759;51.982;9.232;2022-08-25T12:27:43;100357.63;;;29.27;46.53
21203;BME280;10759;51.982;9.232;2022-08-25T12:30:18;100319.91;;;29.19;44.81
21203;BME280;10759;51.982;9.232;2022-08-25T12:33:00;100349.38;;;29.50;44.00
21203;BME280;10759;51.982;9.232;2022-08-25T12:35:36;100353.09;;;29.34;43.27
21203;BME280;10759;51.982;9.232;2022-08-25T12:38:10;100341.19;;;29.33;43.85
21203;BME280;10759;51.982;9.232;2022-08-25T12:40:58;100359.69;;;29.56;44.68
21203;BME280;10759;51.982;9.232;2022-08-25T12:43:30;100335.25;;;29.14;43.28
21203;BME280;10759;51.982;9.232;2022-08-25T12:46:32;100360.00;;;28.90;44.58
21203;BME280;10759;51.982;9.232;2022-08-25T12:49:03;100350.34;;;28.86;44.35
21203;BME280;10759;51.982;9.232;2022-08-25T12:51:51;100332.78;;;28.87;44.63
21203;BME280;10759;51.982;9.232;2022-08-25T12:54:43;100347.78;;;28.77;46.18
21203;BME280;10759;51.982;9.232;2022-08-25T12:57:28;100352.72;;;28.98;46.27
21203;BME280;10759;51.982;9.232;2022-08-25T13:00:04;100352.00;;;28.56;48.65
21203;BME280;10759;51.982;9.232;2022-08-25T13:03:13;100351.44;;;28.77;48.41
21203;BME280;10759;51.982;9.232;2022-08-25T13:06:10;100348.47;;;28.79;47.05
21203;BME280;10759;51.982;9.232;2022-08-25T13:09:09;100350.06;;;28.73;45.68
21203;BME280;10759;51.982;9.232;2022-08-25T13:11:49;100349.84;;;28.83;45.78
21203;BME280;10759;51.982;9.232;2022-08-25T13:14:32;100342.69;;;29.05;45.49
21203;BME280;10759;51.982;9.232;2022-08-25T13:17:04;100260.03;;;28.88;44.97
21203;BME280;10759;51.982;9.232;2022-08-25T13:19:36;100331.41;;;29.54;45.21
21203;BME280;10759;51.982;9.232;2022-08-25T13:22:12;100321.25;;;29.78;45.00
21203;BME280;10759;51.982;9.232;2022-08-25T13:24:44;100316.69;;;29.62;42.97
21203;BME280;10759;51.982;9.232;2022-08-25T13:27:23;100310.06;;;29.48;42.17
21203;BME280;10759;51.982;9.232;2022-08-25T13:29:56;100305.75;;;29.22;42.93
21203;BME280;10759;51.982;9.232;2022-08-25T13:32:31;100310.88;;;29.25;42.84